sensor_id;sensor_type;location;lat;lon;timestamp;P1;durP1;ratioP1;P2;durP2;ratioP2
66581;SDS011;53438;48.898;2.308;2023-04-24T03:01:53;5.47;;;1.73;;
66581;SDS011;53438;48.898;2.308;2023-04-24T03:04:18;4.57;;;1.73;;
66581;SDS011;53438;48.898;2.308;2023-04-24T03:06:45;4.87;;;1.50;;
66581;SDS011;53438;48.898;2.308;2023-04-24T03:09:11;6.38;;;1.88;;
66581;SDS011;53438;48.898;2.308;2023-04-24T03:11:37;4.63;;;1.60;;
66581;SDS011;53438;48.898;2.308;2023-04-24T03:14:02;6.17;;;1.50;;
66581;SDS011;53438;48.898;2.308;2023-04-24T03:16:27;6.37;;;2.27;;
66581;SDS011;53438;48.898;2.308;2023-04-24T03:18:53;10.90;;;2.10;;
66581;SDS011;53438;48.898;2.308;2023-04-24T03:21:18;7.77;;;1.77;;
66581;SDS011;53438;48.898;2.308;2023-04-24T03:23:43;6.67;;;1.77;;
66581;SDS011;53438;48.898;2.308;2023-04-24T03:26:09;10.17;;;2.23;;
66581;SDS011;53438;48.898;2.308;2023-04-24T03:28:34;5.03;;;1.63;;
66581;SDS011;53438;48.898;2.308;2023-04-24T03:30:59;5.20;;;1.63;;
66581;SDS011;53438;48.898;2.308;2023-04-24T03:33:25;7.33;;;2.30;;
66581;SDS011;53438;48.898;2.308;2023-04-24T03:35:50;4.90;;;1.83;;
66581;SDS011;53438;48.898;2.308;2023-04-24T03:38:15;4.97;;;1.50;;
66581;SDS011;53438;48.898;2.308;2023-04-24T03:40:41;4.30;;;1.80;;
66581;SDS011;53438;48.898;2.308;2023-04-24T03:43:06;8.57;;;1.60;;
66581;SDS011;53438;48.898;2.308;2023-04-24T03:45:31;6.27;;;1.93;;
66581;SDS011;53438;48.898;2.308;2023-04-24T03:47:57;6.95;;;2.03;;
66581;SDS011;53438;48.898;2.308;2023-04-24T03:50:22;6.63;;;1.50;;
66581;SDS011;53438;48.898;2.308;2023-04-24T03:52:48;6.70;;;2.13;;
66581;SDS011;53438;48.898;2.308;2023-04-24T03:55:13;6.73;;;1.83;;
66581;SDS011;53438;48.898;2.308;2023-04-24T03:57:40;8.73;;;2.07;;
66581;SDS011;53438;48.898;2.308;2023-04-24T04:00:05;4.68;;;2.22;;
66581;SDS011;53438;48.898;2.308;2023-04-24T04:02:31;6.28;;;2.15;;
66581;SDS011;53438;48.898;2.308;2023-04-24T04:04:56;6.90;;;2.60;;
66581;SDS011;53438;48.898;2.308;2023-04-24T04:07:22;6.07;;;2.47;;
66581;SDS011;53438;48.898;2.308;2023-04-24T04:09:47;6.23;;;2.47;;
66581;SDS011;53438;48.898;2.308;2023-04-24T04:12:12;9.63;;;2.17;;
66581;SDS011;53438;48.898;2.308;2023-04-24T04:14:38;9.97;;;1.97;;
66581;SDS011;53438;48.898;2.308;2023-04-24T04:17:03;8.93;;;2.07;;
66581;SDS011;53438;48.898;2.308;2023-04-24T04:19:28;5.80;;;2.07;;
66581;SDS011;53438;48.898;2.308;2023-04-24T04:21:54;6.57;;;2.13;;
66581;SDS011;53438;48.898;2.308;2023-04-24T04:24:21;5.55;;;2.35;;
66581;SDS011;53438;48.898;2.308;2023-04-24T04:26:47;9.27;;;2.57;;
66581;SDS011;53438;48.898;2.308;2023-04-24T04:29:16;9.50;;;2.38;;
66581;SDS011;53438;48.898;2.308;2023-04-24T04:31:44;7.03;;;1.95;;
66581;SDS011;53438;48.898;2.308;2023-04-24T04:34:10;7.82;;;2.67;;
66581;SDS011;53438;48.898;2.308;2023-04-24T04:36:36;4.60;;;2.45;;
66581;SDS011;53438;48.898;2.308;2023-04-24T04:39:05;5.60;;;2.33;;
66581;SDS011;53438;48.898;2.308;2023-04-24T04:41:30;7.43;;;2.15;;
66581;SDS011;53438;48.898;2.308;2023-04-24T04:43:56;7.40;;;2.23;;
66581;SDS011;53438;48.898;2.308;2023-04-24T04:46:23;5.45;;;2.65;;
66581;SDS011;53438;48.898;2.308;2023-04-24T04:48:51;6.70;;;2.60;;
66581;SDS011;53438;48.898;2.308;2023-04-24T04:51:16;8.45;;;3.50;;
66581;SDS011;53438;48.898;2.308;2023-04-24T04:53:42;7.53;;;2.40;;
66581;SDS011;53438;48.898;2.308;2023-04-24T04:56:07;6.20;;;2.67;;
66581;SDS011;53438;48.898;2.308;2023-04-24T04:58:32;7.60;;;2.47;;
66581;SDS011;53438;48.898;2.308;2023-04-24T05:00:58;7.47;;;2.17;;
66581;SDS011;53438;48.898;2.308;2023-04-24T05:03:24;6.32;;;2.47;;
66581;SDS011;53438;48.898;2.308;2023-04-24T05:05:49;8.73;;;2.53;;
66581;SDS011;53438;48.898;2.308;2023-04-24T05:08:15;7.78;;;2.35;;
66581;SDS011;53438;48.898;2.308;2023-04-24T05:10:40;8.23;;;2.73;;
66581;SDS011;53438;48.898;2.308;2023-04-24T05:13:05;6.43;;;2.87;;
66581;SDS011;53438;48.898;2.308;2023-04-24T05:15:31;8.73;;;3.00;;
66581;SDS011;53438;48.898;2.308;2023-04-24T05:17:56;6.63;;;3.07;;
66581;SDS011;53438;48.898;2.308;2023-04-24T05:20:22;7.43;;;2.73;;
66581;SDS011;53438;48.898;2.308;2023-04-24T05:22:47;11.85;;;2.65;;
66581;SDS011;53438;48.898;2.308;2023-04-24T05:25:13;6.27;;;2.40;;
66581;SDS011;53438;48.898;2.308;2023-04-24T05:27:38;7.67;;;2.90;;
66581;SDS011;53438;48.898;2.308;2023-04-24T05:30:05;10.70;;;2.80;;
66581;SDS011;53438;48.898;2.308;2023-04-24T05:32:31;9.23;;;3.72;;
66581;SDS011;53438;48.898;2.308;2023-04-24T05:34:56;14.70;;;3.63;;
66581;SDS011;53438;48.898;2.308;2023-04-24T05:37:22;8.03;;;3.20;;
66581;SDS011;53438;48.898;2.308;2023-04-24T05:39:47;10.95;;;3.10;;
66581;SDS011;53438;48.898;2.308;2023-04-24T05:42:12;7.90;;;3.67;;
66581;SDS011;53438;48.898;2.308;2023-04-24T05:44:38;9.60;;;3.37;;
66581;SDS011;53438;48.898;2.308;2023-04-24T05:47:03;9.13;;;3.50;;
66581;SDS011;53438;48.898;2.308;2023-04-24T05:49:29;10.43;;;3.70;;
66581;SDS011;53438;48.898;2.308;2023-04-24T05:51:54;8.57;;;3.73;;
66581;SDS011;53438;48.898;2.308;2023-04-24T05:54:19;6.40;;;3.40;;
66581;SDS011;53438;48.898;2.308;2023-04-24T05:56:45;10.97;;;3.37;;
66581;SDS011;53438;48.898;2.308;2023-04-24T05:59:10;8.50;;;3.90;;
66581;SDS011;53438;48.898;2.308;2023-04-24T06:01:35;9.13;;;3.87;;
66581;SDS011;53438;48.898;2.308;2023-04-24T06:04:01;9.20;;;3.83;;
66581;SDS011;53438;48.898;2.308;2023-04-24T06:06:28;10.95;;;4.03;;
66581;SDS011;53438;48.898;2.308;2023-04-24T06:08:54;8.47;;;4.27;;
66581;SDS011;53438;48.898;2.308;2023-04-24T06:11:19;8.00;;;3.83;;
66581;SDS011;53438;48.898;2.308;2023-04-24T06:13:44;8.20;;;4.37;;
66581;SDS011;53438;48.898;2.308;2023-04-24T06:16:10;11.70;;;4.90;;
66581;SDS011;53438;48.898;2.308;2023-04-24T06:18:36;10.80;;;4.43;;
66581;SDS011;53438;48.898;2.308;2023-04-24T06:21:01;11.87;;;4.80;;
66581;SDS011;53438;48.898;2.308;2023-04-24T06:23:27;11.02;;;3.90;;
66581;SDS011;53438;48.898;2.308;2023-04-24T06:25:52;8.67;;;4.07;;
66581;SDS011;53438;48.898;2.308;2023-04-24T06:28:17;14.33;;;4.10;;
66581;SDS011;53438;48.898;2.308;2023-04-24T06:30:43;9.40;;;5.33;;
66581;SDS011;53438;48.898;2.308;2023-04-24T06:33:08;10.23;;;4.80;;
66581;SDS011;53438;48.898;2.308;2023-04-24T06:35:34;9.85;;;4.10;;
66581;SDS011;53438;48.898;2.308;2023-04-24T06:37:59;11.83;;;4.47;;
66581;SDS011;53438;48.898;2.308;2023-04-24T06:40:24;11.77;;;5.30;;
66581;SDS011;53438;48.898;2.308;2023-04-24T06:42:50;9.77;;;5.07;;
66581;SDS011;53438;48.898;2.308;2023-04-24T06:45:15;8.23;;;4.77;;
66581;SDS011;53438;48.898;2.308;2023-04-24T06:47:40;10.85;;;5.35;;
66581;SDS011;53438;48.898;2.308;2023-04-24T06:50:06;12.23;;;6.13;;
66581;SDS011;53438;48.898;2.308;2023-04-24T06:52:31;10.27;;;5.80;;
66581;SDS011;53438;48.898;2.308;2023-04-24T06:55:01;11.48;;;5.43;;
66581;SDS011;53438;48.898;2.308;2023-04-24T06:57:27;10.87;;;4.77;;
66581;SDS011;53438;48.898;2.308;2023-04-24T06:59:53;13.57;;;5.88;;
66581;SDS011;53438;48.898;2.308;2023-04-24T07:02:18;12.20;;;6.10;;
66581;SDS011;53438;48.898;2.308;2023-04-24T07:04:43;13.70;;;6.37;;
66581;SDS011;53438;48.898;2.308;2023-04-24T07:07:09;11.50;;;5.27;;
66581;SDS011;53438;48.898;2.308;2023-04-24T07:09:37;12.45;;;5.88;;
66581;SDS011;53438;48.898;2.308;2023-04-24T07:12:06;11.02;;;5.70;;
66581;SDS011;53438;48.898;2.308;2023-04-24T07:14:33;10.57;;;5.93;;
66581;SDS011;53438;48.898;2.308;2023-04-24T07:16:59;14.27;;;5.95;;
66581;SDS011;53438;48.898;2.308;2023-04-24T07:19:24;12.43;;;5.37;;
66581;SDS011;53438;48.898;2.308;2023-04-24T07:21:49;15.03;;;6.40;;
66581;SDS011;53438;48.898;2.308;2023-04-24T07:24:15;11.33;;;6.43;;
66581;SDS011;53438;48.898;2.308;2023-04-24T07:26:40;11.77;;;6.93;;
66581;SDS011;53438;48.898;2.308;2023-04-24T07:29:06;18.45;;;7.32;;
66581;SDS011;53438;48.898;2.308;2023-04-24T07:31:32;16.45;;;5.85;;
66581;SDS011;53438;48.898;2.308;2023-04-24T07:33:58;14.33;;;7.00;;
66581;SDS011;53438;48.898;2.308;2023-04-24T07:36:23;11.33;;;5.37;;
66581;SDS011;53438;48.898;2.308;2023-04-24T07:38:49;14.27;;;5.93;;
66581;SDS011;53438;48.898;2.308;2023-04-24T07:41:15;13.57;;;6.60;;
66581;SDS011;53438;48.898;2.308;2023-04-24T07:43:41;11.88;;;6.13;;
66581;SDS011;53438;48.898;2.308;2023-04-24T07:46:07;13.67;;;6.13;;
66581;SDS011;53438;48.898;2.308;2023-04-24T07:48:33;13.57;;;6.07;;
66581;SDS011;53438;48.898;2.308;2023-04-24T07:50:59;16.53;;;6.87;;
66581;SDS011;53438;48.898;2.308;2023-04-24T07:53:24;17.30;;;7.23;;
66581;SDS011;53438;48.898;2.308;2023-04-24T07:55:50;17.97;;;6.37;;
66581;SDS011;53438;48.898;2.308;2023-04-24T07:58:15;12.43;;;6.40;;
66581;SDS011;53438;48.898;2.308;2023-04-24T08:00:40;16.73;;;6.60;;
66581;SDS011;53438;48.898;2.308;2023-04-24T08:03:06;16.27;;;6.75;;
66581;SDS011;53438;48.898;2.308;2023-04-24T08:05:31;20.27;;;7.70;;
66581;SDS011;53438;48.898;2.308;2023-04-24T08:07:56;14.60;;;7.03;;
66581;SDS011;53438;48.898;2.308;2023-04-24T08:10:23;11.48;;;6.18;;
66581;SDS011;53438;48.898;2.308;2023-04-24T08:12:49;11.60;;;6.63;;
66581;SDS011;53438;48.898;2.308;2023-04-24T08:15:14;13.52;;;7.50;;
66581;SDS011;53438;48.898;2.308;2023-04-24T08:17:40;16.07;;;6.87;;
66581;SDS011;53438;48.898;2.308;2023-04-24T08:20:05;16.30;;;6.90;;
66581;SDS011;53438;48.898;2.308;2023-04-24T08:22:35;18.30;;;6.68;;
66581;SDS011;53438;48.898;2.308;2023-04-24T08:25:00;17.03;;;7.43;;
66581;SDS011;53438;48.898;2.308;2023-04-24T08:27:26;12.68;;;6.65;;
66581;SDS011;53438;48.898;2.308;2023-04-24T08:29:56;17.17;;;6.90;;
66581;SDS011;53438;48.898;2.308;2023-04-24T08:32:22;13.93;;;6.90;;
66581;SDS011;53438;48.898;2.308;2023-04-24T08:34:47;22.07;;;8.17;;
66581;SDS011;53438;48.898;2.308;2023-04-24T08:37:12;14.60;;;7.13;;
66581;SDS011;53438;48.898;2.308;2023-04-24T08:39:38;15.05;;;7.38;;
66581;SDS011;53438;48.898;2.308;2023-04-24T08:42:04;13.70;;;6.83;;
66581;SDS011;53438;48.898;2.308;2023-04-24T08:44:33;18.77;;;7.78;;
66581;SDS011;53438;48.898;2.308;2023-04-24T08:47:01;12.23;;;6.30;;
66581;SDS011;53438;48.898;2.308;2023-04-24T08:49:27;17.35;;;7.45;;
66581;SDS011;53438;48.898;2.308;2023-04-24T08:51:53;13.43;;;7.30;;
66581;SDS011;53438;48.898;2.308;2023-04-24T08:54:18;18.87;;;7.60;;
66581;SDS011;53438;48.898;2.308;2023-04-24T08:56:44;13.63;;;7.37;;
66581;SDS011;53438;48.898;2.308;2023-04-24T08:59:12;15.48;;;8.02;;
66581;SDS011;53438;48.898;2.308;2023-04-24T09:01:38;14.45;;;7.30;;
66581;SDS011;53438;48.898;2.308;2023-04-24T09:04:07;12.40;;;7.30;;
66581;SDS011;53438;48.898;2.308;2023-04-24T09:06:35;14.63;;;7.03;;
66581;SDS011;53438;48.898;2.308;2023-04-24T09:09:01;16.33;;;8.07;;
66581;SDS011;53438;48.898;2.308;2023-04-24T09:11:29;15.93;;;7.65;;
66581;SDS011;53438;48.898;2.308;2023-04-24T09:13:55;13.97;;;7.87;;
66581;SDS011;53438;48.898;2.308;2023-04-24T09:16:21;14.10;;;7.25;;
66581;SDS011;53438;48.898;2.308;2023-04-24T09:18:49;22.02;;;6.93;;
66581;SDS011;53438;48.898;2.308;2023-04-24T09:21:14;16.40;;;7.47;;
66581;SDS011;53438;48.898;2.308;2023-04-24T09:23:40;19.27;;;7.28;;
66581;SDS011;53438;48.898;2.308;2023-04-24T09:26:06;20.53;;;7.83;;
66581;SDS011;53438;48.898;2.308;2023-04-24T09:28:35;13.70;;;6.88;;
66581;SDS011;53438;48.898;2.308;2023-04-24T09:31:23;22.63;;;7.18;;
66581;SDS011;53438;48.898;2.308;2023-04-24T09:33:59;16.20;;;7.63;;
66581;SDS011;53438;48.898;2.308;2023-04-24T09:36:31;18.38;;;7.55;;
66581;SDS011;53438;48.898;2.308;2023-04-24T09:39:02;16.27;;;7.43;;
66581;SDS011;53438;48.898;2.308;2023-04-24T09:41:29;19.60;;;7.90;;
66581;SDS011;53438;48.898;2.308;2023-04-24T09:43:55;16.17;;;8.00;;
66581;SDS011;53438;48.898;2.308;2023-04-24T09:46:28;13.27;;;7.03;;
66581;SDS011;53438;48.898;2.308;2023-04-24T09:48:55;12.93;;;6.68;;
66581;SDS011;53438;48.898;2.308;2023-04-24T09:51:32;14.50;;;6.67;;
66581;SDS011;53438;48.898;2.308;2023-04-24T09:54:00;14.40;;;7.68;;
66581;SDS011;53438;48.898;2.308;2023-04-24T09:56:25;12.17;;;8.10;;
66581;SDS011;53438;48.898;2.308;2023-04-24T09:58:51;16.67;;;7.35;;
66581;SDS011;53438;48.898;2.308;2023-04-24T10:01:28;14.53;;;7.40;;
66581;SDS011;53438;48.898;2.308;2023-04-24T10:03:55;11.75;;;6.30;;
66581;SDS011;53438;48.898;2.308;2023-04-24T10:06:20;14.10;;;6.63;;
66581;SDS011;53438;48.898;2.308;2023-04-24T10:08:46;14.13;;;6.30;;
66581;SDS011;53438;48.898;2.308;2023-04-24T10:11:13;13.40;;;6.80;;
66581;SDS011;53438;48.898;2.308;2023-04-24T10:13:39;17.03;;;7.50;;
66581;SDS011;53438;48.898;2.308;2023-04-24T10:16:05;15.38;;;8.07;;
66581;SDS011;53438;48.898;2.308;2023-04-24T10:18:32;14.02;;;8.57;;
66581;SDS011;53438;48.898;2.308;2023-04-24T10:20:59;11.88;;;6.40;;
66581;SDS011;53438;48.898;2.308;2023-04-24T10:23:25;12.10;;;6.53;;
66581;SDS011;53438;48.898;2.308;2023-04-24T10:25:50;11.90;;;6.18;;
66581;SDS011;53438;48.898;2.308;2023-04-24T10:28:17;11.85;;;6.55;;
66581;SDS011;53438;48.898;2.308;2023-04-24T10:30:44;12.93;;;7.47;;
66581;SDS011;53438;48.898;2.308;2023-04-24T10:33:10;11.82;;;6.65;;
66581;SDS011;53438;48.898;2.308;2023-04-24T10:35:39;12.13;;;7.63;;
66581;SDS011;53438;48.898;2.308;2023-04-24T10:38:13;14.10;;;6.82;;
66581;SDS011;53438;48.898;2.308;2023-04-24T10:40:41;14.70;;;7.65;;
66581;SDS011;53438;48.898;2.308;2023-04-24T10:43:08;13.20;;;6.97;;
66581;SDS011;53438;48.898;2.308;2023-04-24T10:45:37;9.45;;;5.15;;
66581;SDS011;53438;48.898;2.308;2023-04-24T10:48:07;11.00;;;6.18;;
66581;SDS011;53438;48.898;2.308;2023-04-24T10:53:18;7.90;;;5.22;;
66581;SDS011;53438;48.898;2.308;2023-04-24T10:55:47;13.13;;;6.87;;
66581;SDS011;53438;48.898;2.308;2023-04-24T10:58:14;12.82;;;5.60;;
66581;SDS011;53438;48.898;2.308;2023-04-24T11:00:41;10.15;;;5.55;;
66581;SDS011;53438;48.898;2.308;2023-04-24T11:03:42;12.50;;;6.32;;
66581;SDS011;53438;48.898;2.308;2023-04-24T11:06:05;13.32;;;7.47;;
66581;SDS011;53438;48.898;2.308;2023-04-24T11:08:37;9.80;;;5.60;;
66581;SDS011;53438;48.898;2.308;2023-04-24T11:11:08;29.02;;;11.70;;
66581;SDS011;53438;48.898;2.308;2023-04-24T11:16:20;9.20;;;5.32;;
66581;SDS011;53438;48.898;2.308;2023-04-24T11:18:49;11.27;;;5.32;;
66581;SDS011;53438;48.898;2.308;2023-04-24T11:21:18;11.60;;;4.80;;
66581;SDS011;53438;48.898;2.308;2023-04-24T11:23:44;8.43;;;4.95;;
66581;SDS011;53438;48.898;2.308;2023-04-24T11:26:11;9.68;;;4.47;;
66581;SDS011;53438;48.898;2.308;2023-04-24T11:28:43;9.67;;;5.20;;
66581;SDS011;53438;48.898;2.308;2023-04-24T11:34:08;10.32;;;5.82;;
66581;SDS011;53438;48.898;2.308;2023-04-24T11:36:35;11.63;;;5.47;;
66581;SDS011;53438;48.898;2.308;2023-04-24T11:39:01;9.50;;;5.43;;
66581;SDS011;53438;48.898;2.308;2023-04-24T11:41:27;9.73;;;5.17;;
66581;SDS011;53438;48.898;2.308;2023-04-24T11:43:53;10.18;;;5.60;;
66581;SDS011;53438;48.898;2.308;2023-04-24T11:46:23;12.70;;;6.30;;
66581;SDS011;53438;48.898;2.308;2023-04-24T11:48:51;15.17;;;5.10;;
66581;SDS011;53438;48.898;2.308;2023-04-24T11:51:16;16.23;;;6.70;;
66581;SDS011;53438;48.898;2.308;2023-04-24T11:53:42;18.13;;;6.70;;
66581;SDS011;53438;48.898;2.308;2023-04-24T11:56:08;10.57;;;4.60;;
66581;SDS011;53438;48.898;2.308;2023-04-24T11:58:40;7.28;;;3.88;;
66581;SDS011;53438;48.898;2.308;2023-04-24T12:01:05;8.43;;;4.50;;
66581;SDS011;53438;48.898;2.308;2023-04-24T12:03:31;8.13;;;5.10;;
66581;SDS011;53438;48.898;2.308;2023-04-24T12:06:06;8.97;;;4.63;;
66581;SDS011;53438;48.898;2.308;2023-04-24T12:08:35;17.10;;;4.93;;
66581;SDS011;53438;48.898;2.308;2023-04-24T12:11:01;24.07;;;5.23;;
66581;SDS011;53438;48.898;2.308;2023-04-24T12:13:28;29.45;;;5.43;;
66581;SDS011;53438;48.898;2.308;2023-04-24T12:15:53;8.33;;;3.40;;
66581;SDS011;53438;48.898;2.308;2023-04-24T12:18:22;12.95;;;3.83;;
66581;SDS011;53438;48.898;2.308;2023-04-24T12:20:48;24.00;;;4.10;;
66581;SDS011;53438;48.898;2.308;2023-04-24T12:23:13;18.67;;;4.07;;
66581;SDS011;53438;48.898;2.308;2023-04-24T12:25:38;8.00;;;3.33;;
66581;SDS011;53438;48.898;2.308;2023-04-24T12:30:38;7.07;;;2.90;;
66581;SDS011;53438;48.898;2.308;2023-04-24T12:33:20;4.20;;;2.95;;
66581;SDS011;53438;48.898;2.308;2023-04-24T12:35:48;4.57;;;2.70;;
66581;SDS011;53438;48.898;2.308;2023-04-24T12:38:21;7.43;;;2.45;;
66581;SDS011;53438;48.898;2.308;2023-04-24T12:41:00;4.73;;;2.17;;
66581;SDS011;53438;48.898;2.308;2023-04-24T12:43:29;8.15;;;3.63;;
66581;SDS011;53438;48.898;2.308;2023-04-24T12:45:56;5.10;;;2.90;;
66581;SDS011;53438;48.898;2.308;2023-04-24T12:48:22;6.33;;;2.80;;
66581;SDS011;53438;48.898;2.308;2023-04-24T12:50:47;4.18;;;2.00;;
66581;SDS011;53438;48.898;2.308;2023-04-24T12:53:13;3.50;;;1.70;;
66581;SDS011;53438;48.898;2.308;2023-04-24T12:55:40;5.30;;;1.70;;
66581;SDS011;53438;48.898;2.308;2023-04-24T12:58:05;13.23;;;2.83;;
66581;SDS011;53438;48.898;2.308;2023-04-24T13:00:30;16.87;;;3.37;;
66581;SDS011;53438;48.898;2.308;2023-04-24T13:02:56;6.45;;;2.42;;
66581;SDS011;53438;48.898;2.308;2023-04-24T13:05:21;8.40;;;2.90;;
66581;SDS011;53438;48.898;2.308;2023-04-24T13:07:46;9.47;;;3.50;;
66581;SDS011;53438;48.898;2.308;2023-04-24T13:10:12;6.87;;;2.60;;
66581;SDS011;53438;48.898;2.308;2023-04-24T13:12:38;8.77;;;2.22;;
66581;SDS011;53438;48.898;2.308;2023-04-24T13:15:04;9.37;;;2.20;;
66581;SDS011;53438;48.898;2.308;2023-04-24T13:17:30;10.07;;;2.90;;
66581;SDS011;53438;48.898;2.308;2023-04-24T13:19:55;5.63;;;2.40;;
66581;SDS011;53438;48.898;2.308;2023-04-24T13:22:20;5.97;;;2.23;;
66581;SDS011;53438;48.898;2.308;2023-04-24T13:24:46;4.83;;;1.77;;
66581;SDS011;53438;48.898;2.308;2023-04-24T13:27:13;5.72;;;1.75;;
66581;SDS011;53438;48.898;2.308;2023-04-24T13:29:39;8.77;;;2.47;;
66581;SDS011;53438;48.898;2.308;2023-04-24T13:32:05;6.60;;;2.47;;
66581;SDS011;53438;48.898;2.308;2023-04-24T13:34:31;10.85;;;2.90;;
66581;SDS011;53438;48.898;2.308;2023-04-24T13:36:57;14.03;;;3.40;;
66581;SDS011;53438;48.898;2.308;2023-04-24T13:39:23;5.78;;;1.90;;
66581;SDS011;53438;48.898;2.308;2023-04-24T13:41:49;10.15;;;2.80;;
66581;SDS011;53438;48.898;2.308;2023-04-24T13:44:16;10.70;;;2.23;;
66581;SDS011;53438;48.898;2.308;2023-04-24T13:46:42;5.70;;;1.90;;
66581;SDS011;53438;48.898;2.308;2023-04-24T13:49:10;4.80;;;1.67;;
66581;SDS011;53438;48.898;2.308;2023-04-24T13:51:36;5.15;;;1.90;;
66581;SDS011;53438;48.898;2.308;2023-04-24T13:54:01;10.30;;;2.20;;
66581;SDS011;53438;48.898;2.308;2023-04-24T13:56:26;5.57;;;1.57;;
66581;SDS011;53438;48.898;2.308;2023-04-24T13:58:52;4.27;;;2.30;;
66581;SDS011;53438;48.898;2.308;2023-04-24T14:01:19;3.35;;;1.50;;
66581;SDS011;53438;48.898;2.308;2023-04-24T14:03:46;7.90;;;2.20;;
66581;SDS011;53438;48.898;2.308;2023-04-24T14:06:11;2.90;;;2.10;;
66581;SDS011;53438;48.898;2.308;2023-04-24T14:08:37;7.90;;;3.37;;
66581;SDS011;53438;48.898;2.308;2023-04-24T14:11:02;17.07;;;9.30;;
66581;SDS011;53438;48.898;2.308;2023-04-24T14:13:27;2.73;;;2.00;;
66581;SDS011;53438;48.898;2.308;2023-04-24T14:15:53;6.13;;;1.42;;
66581;SDS011;53438;48.898;2.308;2023-04-24T14:18:19;4.93;;;2.08;;
66581;SDS011;53438;48.898;2.308;2023-04-24T14:20:45;4.83;;;1.70;;
66581;SDS011;53438;48.898;2.308;2023-04-24T14:23:10;4.97;;;2.63;;
66581;SDS011;53438;48.898;2.308;2023-04-24T14:25:35;7.60;;;2.97;;
66581;SDS011;53438;48.898;2.308;2023-04-24T14:28:01;4.70;;;2.30;;
66581;SDS011;53438;48.898;2.308;2023-04-24T14:30:26;6.70;;;3.78;;
66581;SDS011;53438;48.898;2.308;2023-04-24T14:32:51;3.53;;;2.20;;
66581;SDS011;53438;48.898;2.308;2023-04-24T14:35:17;6.23;;;2.17;;
66581;SDS011;53438;48.898;2.308;2023-04-24T14:37:42;2.67;;;1.50;;
66581;SDS011;53438;48.898;2.308;2023-04-24T14:40:08;3.20;;;1.53;;
66581;SDS011;53438;48.898;2.308;2023-04-24T14:42:34;5.00;;;1.48;;
66581;SDS011;53438;48.898;2.308;2023-04-24T14:45:00;2.80;;;1.50;;
66581;SDS011;53438;48.898;2.308;2023-04-24T14:47:25;4.50;;;1.87;;
66581;SDS011;53438;48.898;2.308;2023-04-24T14:49:51;4.17;;;1.50;;
66581;SDS011;53438;48.898;2.308;2023-04-24T14:52:16;3.58;;;1.70;;
66581;SDS011;53438;48.898;2.308;2023-04-24T14:54:42;3.30;;;1.50;;
66581;SDS011;53438;48.898;2.308;2023-04-24T14:57:08;5.68;;;1.70;;
66581;SDS011;53438;48.898;2.308;2023-04-24T14:59:33;7.17;;;2.80;;
66581;SDS011;53438;48.898;2.308;2023-04-24T15:01:59;5.70;;;1.48;;
66581;SDS011;53438;48.898;2.308;2023-04-24T15:04:24;10.88;;;2.70;;
66581;SDS011;53438;48.898;2.308;2023-04-24T15:06:50;4.80;;;1.80;;
66581;SDS011;53438;48.898;2.308;2023-04-24T15:09:16;6.45;;;2.17;;
66581;SDS011;53438;48.898;2.308;2023-04-24T15:11:42;8.90;;;2.43;;
66581;SDS011;53438;48.898;2.308;2023-04-24T15:14:07;6.27;;;1.80;;
66581;SDS011;53438;48.898;2.308;2023-04-24T15:16:32;3.60;;;1.50;;
66581;SDS011;53438;48.898;2.308;2023-04-24T15:18:58;2.10;;;1.45;;
66581;SDS011;53438;48.898;2.308;2023-04-24T15:21:23;4.72;;;1.50;;
66581;SDS011;53438;48.898;2.308;2023-04-24T15:23:48;3.83;;;1.00;;
66581;SDS011;53438;48.898;2.308;2023-04-24T15:26:14;12.45;;;2.60;;
66581;SDS011;53438;48.898;2.308;2023-04-24T15:28:40;5.80;;;1.38;;
66581;SDS011;53438;48.898;2.308;2023-04-24T15:31:05;2.80;;;0.77;;
66581;SDS011;53438;48.898;2.308;2023-04-24T15:33:30;1.70;;;0.80;;
66581;SDS011;53438;48.898;2.308;2023-04-24T15:35:56;12.47;;;3.70;;
66581;SDS011;53438;48.898;2.308;2023-04-24T15:38:21;7.70;;;1.90;;
66581;SDS011;53438;48.898;2.308;2023-04-24T15:40:46;9.37;;;3.30;;
66581;SDS011;53438;48.898;2.308;2023-04-24T15:43:13;15.88;;;3.78;;
66581;SDS011;53438;48.898;2.308;2023-04-24T15:45:38;9.60;;;3.33;;
66581;SDS011;53438;48.898;2.308;2023-04-24T15:48:04;4.27;;;1.40;;
66581;SDS011;53438;48.898;2.308;2023-04-24T15:50:29;3.78;;;1.73;;
66581;SDS011;53438;48.898;2.308;2023-04-24T15:52:54;4.27;;;1.00;;
66581;SDS011;53438;48.898;2.308;2023-04-24T15:55:20;3.00;;;1.00;;
66581;SDS011;53438;48.898;2.308;2023-04-24T15:57:45;2.60;;;1.20;;
66581;SDS011;53438;48.898;2.308;2023-04-24T16:00:12;2.63;;;1.50;;
66581;SDS011;53438;48.898;2.308;2023-04-24T16:02:38;3.50;;;1.50;;
66581;SDS011;53438;48.898;2.308;2023-04-24T16:05:03;4.83;;;1.50;;
66581;SDS011;53438;48.898;2.308;2023-04-24T16:07:31;2.50;;;1.65;;
66581;SDS011;53438;48.898;2.308;2023-04-24T16:09:58;2.65;;;1.73;;
66581;SDS011;53438;48.898;2.308;2023-04-24T16:12:23;3.10;;;1.40;;
66581;SDS011;53438;48.898;2.308;2023-04-24T16:14:51;4.00;;;1.60;;
66581;SDS011;53438;48.898;2.308;2023-04-24T16:17:17;4.03;;;1.88;;
66581;SDS011;53438;48.898;2.308;2023-04-24T16:19:44;3.57;;;2.80;;
66581;SDS011;53438;48.898;2.308;2023-04-24T16:22:09;3.35;;;1.92;;
66581;SDS011;53438;48.898;2.308;2023-04-24T16:24:35;3.87;;;2.10;;
66581;SDS011;53438;48.898;2.308;2023-04-24T16:27:00;7.53;;;2.60;;
66581;SDS011;53438;48.898;2.308;2023-04-24T16:29:26;3.77;;;1.83;;
66581;SDS011;53438;48.898;2.308;2023-04-24T16:31:52;3.13;;;2.20;;
66581;SDS011;53438;48.898;2.308;2023-04-24T16:34:17;4.80;;;1.97;;
66581;SDS011;53438;48.898;2.308;2023-04-24T16:36:42;2.80;;;1.80;;
66581;SDS011;53438;48.898;2.308;2023-04-24T16:39:08;2.85;;;2.30;;
66581;SDS011;53438;48.898;2.308;2023-04-24T16:41:33;3.45;;;1.85;;
66581;SDS011;53438;48.898;2.308;2023-04-24T16:43:59;4.07;;;1.80;;
66581;SDS011;53438;48.898;2.308;2023-04-24T16:46:24;6.10;;;3.27;;
66581;SDS011;53438;48.898;2.308;2023-04-24T16:48:50;2.92;;;2.30;;
66581;SDS011;53438;48.898;2.308;2023-04-24T16:51:16;4.53;;;2.27;;
66581;SDS011;53438;48.898;2.308;2023-04-24T16:53:41;4.70;;;2.55;;
66581;SDS011;53438;48.898;2.308;2023-04-24T16:56:07;5.93;;;1.93;;
66581;SDS011;53438;48.898;2.308;2023-04-24T16:58:32;4.17;;;2.07;;
66581;SDS011;53438;48.898;2.308;2023-04-24T17:00:57;3.87;;;2.10;;
66581;SDS011;53438;48.898;2.308;2023-04-24T17:03:23;2.37;;;1.80;;
66581;SDS011;53438;48.898;2.308;2023-04-24T17:05:49;4.93;;;1.70;;
66581;SDS011;53438;48.898;2.308;2023-04-24T17:08:14;5.33;;;2.20;;
66581;SDS011;53438;48.898;2.308;2023-04-24T17:10:40;3.47;;;1.77;;
66581;SDS011;53438;48.898;2.308;2023-04-24T17:13:06;3.33;;;2.20;;
66581;SDS011;53438;48.898;2.308;2023-04-24T17:15:32;4.53;;;1.90;;
66581;SDS011;53438;48.898;2.308;2023-04-24T17:17:58;4.60;;;1.83;;
66581;SDS011;53438;48.898;2.308;2023-04-24T17:20:24;4.67;;;2.20;;
66581;SDS011;53438;48.898;2.308;2023-04-24T17:22:49;4.57;;;2.57;;
66581;SDS011;53438;48.898;2.308;2023-04-24T17:25:15;4.68;;;2.47;;
66581;SDS011;53438;48.898;2.308;2023-04-24T17:27:40;3.70;;;2.40;;
66581;SDS011;53438;48.898;2.308;2023-04-24T17:30:06;5.43;;;2.03;;
66581;SDS011;53438;48.898;2.308;2023-04-24T17:32:32;3.40;;;2.40;;
66581;SDS011;53438;48.898;2.308;2023-04-24T17:34:59;5.03;;;2.20;;
66581;SDS011;53438;48.898;2.308;2023-04-24T17:37:25;4.10;;;2.38;;
66581;SDS011;53438;48.898;2.308;2023-04-24T17:39:52;4.65;;;2.50;;
66581;SDS011;53438;48.898;2.308;2023-04-24T17:42:18;5.60;;;2.23;;
66581;SDS011;53438;48.898;2.308;2023-04-24T17:44:43;5.27;;;3.07;;
66581;SDS011;53438;48.898;2.308;2023-04-24T17:47:08;5.28;;;2.15;;
66581;SDS011;53438;48.898;2.308;2023-04-24T17:49:34;5.35;;;2.50;;